sensor_id;sensor_type;location;lat;lon;timestamp;pressure;altitude;pressure_sealevel;temperature;humidity
74427;BME280;62859;53.906;27.430;2023-08-20T00:01:01;1013.7;;;27.8;42.7
74427;BME280;62859;53.906;27.430;2023-08-20T00:05:43;1013.7;;;27.8;42.7
74427;BME280;62859;53.906;27.430;2023-08-20T00:10:43;1013.6;;;27.8;42.8
74427;BME280;62859;53.906;27.430;2023-08-20T00:16:03;1013.5;;;27.8;42.8
74427;BME280;62859;53.906;27.430;2023-08-20T00:21:03;1013.5;;;27.8;42.7
74427;BME280;62859;53.906;27.430;2023-08-20T00:25:55;1013.4;;;27.7;43.4
74427;BME280;62859;53.906;27.430;2023-08-20T00:30:49;1013.3;;;27.5;43.7
74427;BME280;62859;53.906;27.430;2023-08-20T00:35:37;1013.2;;;27.5;43.4
74427;BME280;62859;53.906;27.430;2023-08-20T00:40:41;1013.2;;;27.5;43.2
74427;BME280;62859;53.906;27.430;2023-08-20T00:46:03;1013.1;;;27.6;43.3
74427;BME280;62859;53.906;27.430;2023-08-20T00:50:31;1013.1;;;27.6;43.4
74427;BME280;62859;53.906;27.430;2023-08-20T00:55:27;1013;;;27.6;43.4
74427;BME280;62859;53.906;27.430;2023-08-20T01:00:29;1013;;;27.6;43.8
74427;BME280;62859;53.906;27.430;2023-08-20T01:06:05;1013;;;27.5;43.6
74427;BME280;62859;53.906;27.430;2023-08-20T01:10:46;1012.9;;;27.5;43.9
74427;BME280;62859;53.906;27.430;2023-08-20T01:15:31;1012.9;;;27.4;44.2
74427;BME280;62859;53.906;27.430;2023-08-20T01:20:56;1012.9;;;27.3;44.6
74427;BME280;62859;53.906;27.430;2023-08-20T01:26:02;1012.9;;;27.3;44.7
74427;BME280;62859;53.906;27.430;2023-08-20T01:30:27;1012.9;;;27.3;44.6
74427;BME280;62859;53.906;27.430;2023-08-20T01:35:47;1012.9;;;27.2;45.3
74427;BME280;62859;53.906;27.430;2023-08-20T01:40:49;1012.9;;;27.1;45.3
74427;BME280;62859;53.906;27.430;2023-08-20T01:45:31;1012.9;;;27.1;45.4
74427;BME280;62859;53.906;27.430;2023-08-20T01:50:43;1012.9;;;27;45.5
74427;BME280;62859;53.906;27.430;2023-08-20T01:56:03;1012.9;;;27;45.4
74427;BME280;62859;53.906;27.430;2023-08-20T02:00:49;1012.9;;;26.9;46
74427;BME280;62859;53.906;27.430;2023-08-20T02:05:31;1012.9;;;26.8;46.1
74427;BME280;62859;53.906;27.430;2023-08-20T02:11:05;1013;;;26.8;46.3
74427;BME280;62859;53.906;27.430;2023-08-20T02:15:27;1013;;;26.8;46.1
74427;BME280;62859;53.906;27.430;2023-08-20T02:20:27;1013.1;;;26.7;46
74427;BME280;62859;53.906;27.430;2023-08-20T02:25:43;1013;;;26.7;46.3
74427;BME280;62859;53.906;27.430;2023-08-20T02:31:03;1013;;;26.6;46.1
74427;BME280;62859;53.906;27.430;2023-08-20T02:36:05;1013;;;26.6;46.4
74427;BME280;62859;53.906;27.430;2023-08-20T02:40:49;1013;;;26.5;46.5
74427;BME280;62859;53.906;27.430;2023-08-20T02:45:27;1012.9;;;26.5;46.5
74427;BME280;62859;53.906;27.430;2023-08-20T02:50:27;1012.8;;;26.5;46.5
74427;BME280;62859;53.906;27.430;2023-08-20T02:55:41;1012.8;;;26.5;46.3
74427;BME280;62859;53.906;27.430;2023-08-20T03:01:03;1012.8;;;26.5;46.4
74427;BME280;62859;53.906;27.430;2023-08-20T03:05:27;1012.8;;;26.5;46.3
74427;BME280;62859;53.906;27.430;2023-08-20T03:10:29;1012.8;;;26.4;46.3
74427;BME280;62859;53.906;27.430;2023-08-20T03:16:03;1012.8;;;26.5;46.2
74427;BME280;62859;53.906;27.430;2023-08-20T03:20:45;1012.9;;;26.5;46.2
74427;BME280;62859;53.906;27.430;2023-08-20T03:25:39;1012.9;;;26.5;46.4
74427;BME280;62859;53.906;27.430;2023-08-20T03:30:49;1012.9;;;26.5;46.6
74427;BME280;62859;53.906;27.430;2023-08-20T03:35:29;1012.9;;;26.5;46.6
74427;BME280;62859;53.906;27.430;2023-08-20T03:41:01;1012.9;;;26.5;46.5
74427;BME280;62859;53.906;27.430;2023-08-20T03:46:01;1012.9;;;26.5;46.7
74427;BME280;62859;53.906;27.430;2023-08-20T03:51:01;1012.9;;;26.6;46.7
74427;BME280;62859;53.906;27.430;2023-08-20T03:55:27;1012.9;;;26.5;46.8
74427;BME280;62859;53.906;27.430;2023-08-20T04:00:37;1012.8;;;26.5;46.8
74427;BME280;62859;53.906;27.430;2023-08-20T04:06:01;1012.8;;;26.5;46.3
74427;BME280;62859;53.906;27.430;2023-08-20T04:11:01;1012.8;;;26.5;46.7
74427;BME280;62859;53.906;27.430;2023-08-20T04:15:53;1012.7;;;26.6;46.8
74427;BME280;62859;53.906;27.430;2023-08-20T04:20:33;1012.7;;;26.6;46.8
74427;BME280;62859;53.906;27.430;2023-08-20T04:25:47;1012.6;;;26.6;46.6
74427;BME280;62859;53.906;27.430;2023-08-20T04:30:27;1012.6;;;26.6;46.5
74427;BME280;62859;53.906;27.430;2023-08-20T04:35:27;1012.6;;;26.7;46.4
74427;BME280;62859;53.906;27.430;2023-08-20T04:40:31;1012.5;;;26.7;46.3
74427;BME280;62859;53.906;27.430;2023-08-20T04:46:01;1012.6;;;26.8;46.6
74427;BME280;62859;53.906;27.430;2023-08-20T04:50:55;1012.6;;;26.9;47
74427;BME280;62859;53.906;27.430;2023-08-20T04:55:51;1012.6;;;26.9;47
74427;BME280;62859;53.906;27.430;2023-08-20T05:00:27;1012.6;;;26.9;46.8
74427;BME280;62859;53.906;27.430;2023-08-20T05:05:37;1012.6;;;26.9;46.8
74427;BME280;62859;53.906;27.430;2023-08-20T05:11:03;1012.6;;;27;46.4
74427;BME280;62859;53.906;27.430;2023-08-20T05:15:27;1012.6;;;27;46.7
74427;BME280;62859;53.906;27.430;2023-08-20T05:20:41;1012.7;;;27;46.7
74427;BME280;62859;53.906;27.430;2023-08-20T05:25:55;1012.7;;;27;46.7
74427;BME280;62859;53.906;27.430;2023-08-20T05:31:03;1012.7;;;27.1;46.8
74427;BME280;62859;53.906;27.430;2023-08-20T05:35:39;1012.7;;;27.1;46.7
74427;BME280;62859;53.906;27.430;2023-08-20T05:40:31;1012.7;;;27.2;46.2
74427;BME280;62859;53.906;27.430;2023-08-20T05:46:03;1012.6;;;27.4;46.1
74427;BME280;62859;53.906;27.430;2023-08-20T05:50:55;1012.6;;;27.5;45.8
74427;BME280;62859;53.906;27.430;2023-08-20T05:55:55;1012.6;;;27.6;45.9
74427;BME280;62859;53.906;27.430;2023-08-20T06:00:27;1012.5;;;27.7;45.9
74427;BME280;62859;53.906;27.430;2023-08-20T06:05:29;1012.5;;;27.8;45.5
74427;BME280;62859;53.906;27.430;2023-08-20T06:10:39;1012.4;;;27.9;45.9
74427;BME280;62859;53.906;27.430;2023-08-20T06:15:43;1012.5;;;28;46
74427;BME280;62859;53.906;27.430;2023-08-20T06:21:05;1012.5;;;28.1;46.2
74427;BME280;62859;53.906;27.430;2023-08-20T06:25:39;1012.5;;;28.2;46.3
74427;BME280;62859;53.906;27.430;2023-08-20T06:30:41;1012.5;;;28.4;46.4
74427;BME280;62859;53.906;27.430;2023-08-20T06:35:59;1012.6;;;28.4;46.5
74427;BME280;62859;53.906;27.430;2023-08-20T06:40:31;1012.6;;;28.5;46.7
74427;BME280;62859;53.906;27.430;2023-08-20T06:45:41;1012.5;;;28.6;46.5
74427;BME280;62859;53.906;27.430;2023-08-20T06:50:43;1012.5;;;28.6;45.9
74427;BME280;62859;53.906;27.430;2023-08-20T06:55:49;1012.5;;;28.6;46.1
74427;BME280;62859;53.906;27.430;2023-08-20T07:00:33;1012.5;;;28.7;45.8
74427;BME280;62859;53.906;27.430;2023-08-20T07:05:29;1012.5;;;28.8;45.3
74427;BME280;62859;53.906;27.430;2023-08-20T07:10:27;1012.5;;;28.9;44.7
74427;BME280;62859;53.906;27.430;2023-08-20T07:15:27;1012.5;;;29;44.8
74427;BME280;62859;53.906;27.430;2023-08-20T07:20:27;1012.5;;;29.1;44.9
74427;BME280;62859;53.906;27.430;2023-08-20T07:26:04;1012.5;;;29.2;43.5
74427;BME280;62859;53.906;27.430;2023-08-20T07:30:27;1012.5;;;29.3;42.6
74427;BME280;62859;53.906;27.430;2023-08-20T07:35:49;1012.5;;;29.4;43.4
74427;BME280;62859;53.906;27.430;2023-08-20T07:41:05;1012.4;;;29.5;42.7
74427;BME280;62859;53.906;27.430;2023-08-20T07:45:51;1012.5;;;29.7;42.7
74427;BME280;62859;53.906;27.430;2023-08-20T07:50:27;1012.4;;;29.8;41.8
74427;BME280;62859;53.906;27.430;2023-08-20T07:55:33;1012.4;;;29.9;40.9
74427;BME280;62859;53.906;27.430;2023-08-20T08:01:03;1012.4;;;30;40.7
74427;BME280;62859;53.906;27.430;2023-08-20T08:06:03;1012.3;;;30.3;39.7
74427;BME280;62859;53.906;27.430;2023-08-20T08:11:03;1012.4;;;30.6;38.9
74427;BME280;62859;53.906;27.430;2023-08-20T08:15:59;1012.4;;;31;38.6
74427;BME280;62859;53.906;27.430;2023-08-20T08:20:31;1012.4;;;31.4;37.9
74427;BME280;62859;53.906;27.430;2023-08-20T08:25:55;1012.3;;;32;36.1
74427;BME280;62859;53.906;27.430;2023-08-20T08:30:49;1012.2;;;32.5;35.3
74427;BME280;62859;53.906;27.430;2023-08-20T08:36:05;1012.2;;;32.9;34.7
74427;BME280;62859;53.906;27.430;2023-08-20T08:40:55;1012.1;;;33.4;34.1
74427;BME280;62859;53.906;27.430;2023-08-20T08:45:49;1012.1;;;33.8;33.4
74427;BME280;62859;53.906;27.430;2023-08-20T08:51:03;1012.1;;;34.2;32.7
74427;BME280;62859;53.906;27.430;2023-08-20T08:55:31;1012.1;;;34.6;32.6
74427;BME280;62859;53.906;27.430;2023-08-20T09:00:55;1012;;;35;32
74427;BME280;62859;53.906;27.430;2023-08-20T09:05:46;1012;;;35.4;31.1
74427;BME280;62859;53.906;27.430;2023-08-20T09:11:00;1012;;;35.6;30.4
74427;BME280;62859;53.906;27.430;2023-08-20T09:15:55;1012;;;36;29.5
74427;BME280;62859;53.906;27.430;2023-08-20T09:20:33;1012;;;36.3;28.6
74427;BME280;62859;53.906;27.430;2023-08-20T09:25:35;1012;;;36.5;28.2
74427;BME280;62859;53.906;27.430;2023-08-20T09:30:31;1012;;;36.6;27.4
74427;BME280;62859;53.906;27.430;2023-08-20T09:36:03;1012;;;36.8;27.9
74427;BME280;62859;53.906;27.430;2023-08-20T09:40:43;1012;;;37;27
74427;BME280;62859;53.906;27.430;2023-08-20T09:45:27;1012;;;37.2;26.7
74427;BME280;62859;53.906;27.430;2023-08-20T09:50:56;1012;;;37.3;26.3
74427;BME280;62859;53.906;27.430;2023-08-20T09:56:05;1012;;;36.8;26.8
74427;BME280;62859;53.906;27.430;2023-08-20T10:00:55;1012;;;36.3;27.5
74427;BME280;62859;53.906;27.430;2023-08-20T10:05:27;1012;;;35.9;28
74427;BME280;62859;53.906;27.430;2023-08-20T10:10:51;1012;;;35.7;28.6
74427;BME280;62859;53.906;27.430;2023-08-20T10:15:55;1011.9;;;35.8;28.4
74427;BME280;62859;53.906;27.430;2023-08-20T10:20:38;1012;;;36.2;28
74427;BME280;62859;53.906;27.430;2023-08-20T10:25:42;1011.9;;;35.7;29
74427;BME280;62859;53.906;27.430;2023-08-20T10:31:07;1012;;;35.3;28.9
74427;BME280;62859;53.906;27.430;2023-08-20T10:35:47;1011.9;;;34.9;29.3
74427;BME280;62859;53.906;27.430;2023-08-20T10:40:47;1011.8;;;34.6;29.9
74427;BME280;62859;53.906;27.430;2023-08-20T10:46:07;1011.8;;;34.8;30.4
74427;BME280;62859;53.906;27.430;2023-08-20T10:50:51;1011.7;;;34.7;30.7
74427;BME280;62859;53.906;27.430;2023-08-20T10:55:27;1011.7;;;34.7;31.1
74427;BME280;62859;53.906;27.430;2023-08-20T11:00:39;1011.6;;;34.7;31.3
74427;BME280;62859;53.906;27.430;2023-08-20T11:05:27;1011.6;;;34.7;31
74427;BME280;62859;53.906;27.430;2023-08-20T11:10:37;1011.6;;;34.8;31.2
74427;BME280;62859;53.906;27.430;2023-08-20T11:15:43;1011.5;;;35.3;30.8
74427;BME280;62859;53.906;27.430;2023-08-20T11:20:41;1011.4;;;36.2;29.7
74427;BME280;62859;53.906;27.430;2023-08-20T11:25:50;1011.3;;;37;28.7
74427;BME280;62859;53.906;27.430;2023-08-20T11:30:49;1011.2;;;37.7;27.6
74427;BME280;62859;53.906;27.430;2023-08-20T11:35:37;1011.1;;;37.6;27.9
74427;BME280;62859;53.906;27.430;2023-08-20T11:40:35;1011.1;;;38;27.5
74427;BME280;62859;53.906;27.430;2023-08-20T11:45:49;1011.1;;;38.5;26.9
74427;BME280;62859;53.906;27.430;2023-08-20T11:51:05;1011;;;38.8;26.9
74427;BME280;62859;53.906;27.430;2023-08-20T11:55:41;1010.9;;;38.2;27.5
74427;BME280;62859;53.906;27.430;2023-08-20T12:00:49;1010.9;;;38.2;26.8
74427;BME280;62859;53.906;27.430;2023-08-20T12:06:16;1010.9;;;38.6;26.4
74427;BME280;62859;53.906;27.430;2023-08-20T12:10:53;1010.9;;;39;26.3
74427;BME280;62859;53.906;27.430;2023-08-20T12:15:31;1010.9;;;39.1;26
74427;BME280;62859;53.906;27.430;2023-08-20T12:20:47;1010.8;;;38.6;26.9
74427;BME280;62859;53.906;27.430;2023-08-20T12:26:03;1010.8;;;38.5;26.9
74427;BME280;62859;53.906;27.430;2023-08-20T12:31:03;1010.8;;;38.3;27.2
74427;BME280;62859;53.906;27.430;2023-08-20T12:36:01;1010.8;;;37.7;27.8
74427;BME280;62859;53.906;27.430;2023-08-20T12:40:49;1010.8;;;37.5;28.5
74427;BME280;62859;53.906;27.430;2023-08-20T12:45:37;1010.8;;;38;27.9
74427;BME280;62859;53.906;27.430;2023-08-20T12:50:43;1010.9;;;38.3;27.5
74427;BME280;62859;53.906;27.430;2023-08-20T12:55:39;1010.9;;;37.9;27.3
74427;BME280;62859;53.906;27.430;2023-08-20T13:01:03;1010.9;;;37.4;27.4
74427;BME280;62859;53.906;27.430;2023-08-20T13:05:55;1010.8;;;37.2;27.6
74427;BME280;62859;53.906;27.430;2023-08-20T13:10:52;1010.8;;;37.6;27.5
74427;BME280;62859;53.906;27.430;2023-08-20T13:16:03;1010.7;;;38;26.8
74427;BME280;62859;53.906;27.430;2023-08-20T13:20:27;1010.7;;;38.4;26.4
74427;BME280;62859;53.906;27.430;2023-08-20T13:25:27;1010.6;;;38.6;25.9
74427;BME280;62859;53.906;27.430;2023-08-20T13:30:39;1010.6;;;38.8;26
74427;BME280;62859;53.906;27.430;2023-08-20T13:36:03;1010.6;;;38.4;25.9
74427;BME280;62859;53.906;27.430;2023-08-20T13:40:51;1010.5;;;37.8;26.8
74427;BME280;62859;53.906;27.430;2023-08-20T13:45:51;1010.5;;;37.8;26.8
74427;BME280;62859;53.906;27.430;2023-08-20T13:50:51;1010.4;;;37.6;27.3
74427;BME280;62859;53.906;27.430;2023-08-20T13:55:31;1010.4;;;37.4;28
74427;BME280;62859;53.906;27.430;2023-08-20T14:01:03;1010.4;;;37.5;27.9
74427;BME280;62859;53.906;27.430;2023-08-20T14:05:45;1010.3;;;37.5;27.8
74427;BME280;62859;53.906;27.430;2023-08-20T14:10:27;1010.3;;;37.1;28.3
74427;BME280;62859;53.906;27.430;2023-08-20T14:15:55;1010.3;;;36.7;29
74427;BME280;62859;53.906;27.430;2023-08-20T14:21:05;1010.2;;;36.7;29.4
74427;BME280;62859;53.906;27.430;2023-08-20T14:25:27;1010.2;;;36.5;29.7
74427;BME280;62859;53.906;27.430;2023-08-20T14:30:27;1010.3;;;36.5;29.5
74427;BME280;62859;53.906;27.430;2023-08-20T14:36:06;1010.3;;;36.2;30
74427;BME280;62859;53.906;27.430;2023-08-20T14:40:59;1010.2;;;35.9;30.7
74427;BME280;62859;53.906;27.430;2023-08-20T14:46:03;1010.3;;;35.4;32
74427;BME280;62859;53.906;27.430;2023-08-20T14:50:27;1010.3;;;34.7;33
74427;BME280;62859;53.906;27.430;2023-08-20T14:55:51;1010.3;;;34.4;33
74427;BME280;62859;53.906;27.430;2023-08-20T15:00:43;1010.2;;;34.1;32.9
74427;BME280;62859;53.906;27.430;2023-08-20T15:05:27;1010.3;;;33.8;33.6
74427;BME280;62859;53.906;27.430;2023-08-20T15:11:03;1010.4;;;33.7;34.2
74427;BME280;62859;53.906;27.430;2023-08-20T15:15:29;1010.4;;;33.7;34.4
74427;BME280;62859;53.906;27.430;2023-08-20T15:20:27;1010.4;;;33.7;35.1
74427;BME280;62859;53.906;27.430;2023-08-20T15:25:33;1010.4;;;33.7;35.5
74427;BME280;62859;53.906;27.430;2023-08-20T15:30:31;1010.4;;;33.7;36
74427;BME280;62859;53.906;27.430;2023-08-20T15:35:41;1010.4;;;33.6;35.7
74427;BME280;62859;53.906;27.430;2023-08-20T15:40:27;1010.4;;;33.5;35.6
74427;BME280;62859;53.906;27.430;2023-08-20T15:45:51;1010.4;;;33.3;36.4
74427;BME280;62859;53.906;27.430;2023-08-20T15:50:49;1010.3;;;33.1;36.9
74427;BME280;62859;53.906;27.430;2023-08-20T15:55:49;1010.4;;;33;37.2
74427;BME280;62859;53.906;27.430;2023-08-20T16:00:27;1010.3;;;32.9;37.5
74427;BME280;62859;53.906;27.430;2023-08-20T16:05:33;1010.3;;;32.7;37.8
74427;BME280;62859;53.906;27.430;2023-08-20T16:10:27;1010.4;;;32.5;38.2
74427;BME280;62859;53.906;27.430;2023-08-20T16:16:03;1010.5;;;32.4;38.6
74427;BME280;62859;53.906;27.430;2023-08-20T16:20:27;1010.5;;;32.2;39.1
74427;BME280;62859;53.906;27.430;2023-08-20T16:25:49;1010.4;;;32;39.4
74427;BME280;62859;53.906;27.430;2023-08-20T16:31:03;1010.4;;;32;39.2
74427;BME280;62859;53.906;27.430;2023-08-20T16:35:51;1010.4;;;31.8;39.4
74427;BME280;62859;53.906;27.430;2023-08-20T16:40:28;1010.4;;;31.7;39.4
74427;BME280;62859;53.906;27.430;2023-08-20T16:45:53;1010.4;;;31.6;39.5
74427;BME280;62859;53.906;27.430;2023-08-20T16:51:03;1010.4;;;31.5;39.5
74427;BME280;62859;53.906;27.430;2023-08-20T16:56:03;1010.4;;;31.4;39.9
74427;BME280;62859;53.906;27.430;2023-08-20T17:01:03;1010.5;;;31.2;42.7
74427;BME280;62859;53.906;27.430;2023-08-20T17:06:03;1010.5;;;30.8;45.2
74427;BME280;62859;53.906;27.430;2023-08-20T17:10:37;1010.5;;;30.6;46.5
74427;BME280;62859;53.906;27.430;2023-08-20T17:15:39;1010.5;;;30.4;47
74427;BME280;62859;53.906;27.430;2023-08-20T17:20:51;1010.6;;;30.2;47.6
74427;BME280;62859;53.906;27.430;2023-08-20T17:26:03;1010.6;;;30.1;47.6
74427;BME280;62859;53.906;27.430;2023-08-20T17:30:43;1010.6;;;30;47.4
74427;BME280;62859;53.906;27.430;2023-08-20T17:35:51;1010.6;;;30;47.1
74427;BME280;62859;53.906;27.430;2023-08-20T17:40:55;1010.7;;;29.9;47.3
74427;BME280;62859;53.906;27.430;2023-08-20T17:45:27;1010.7;;;29.8;47.4
74427;BME280;62859;53.906;27.430;2023-08-20T17:50:27;1010.7;;;29.8;47.4
74427;BME280;62859;53.906;27.430;2023-08-20T17:55:43;1010.8;;;29.8;47.8
74427;BME280;62859;53.906;27.430;2023-08-20T18:01:03;1010.8;;;29.6;48.2
74427;BME280;62859;53.906;27.430;2023-08-20T18:05:55;1010.7;;;29.5;48.4
74427;BME280;62859;53.906;27.430;2023-08-20T18:10:51;1010.8;;;29.5;47.5
74427;BME280;62859;53.906;27.430;2023-08-20T18:15:49;1010.8;;;29.5;47.3
74427;BME280;62859;53.906;27.430;2023-08-20T18:20:32;1010.7;;;29.4;48.4
74427;BME280;62859;53.906;27.430;2023-08-20T18:26:05;1010.7;;;29.4;48.1
74427;BME280;62859;53.906;27.430;2023-08-20T18:30:52;1010.8;;;29.4;48.1
74427;BME280;62859;53.906;27.430;2023-08-20T18:35:27;1010.8;;;29.4;48.4
74427;BME280;62859;53.906;27.430;2023-08-20T18:40:37;1010.8;;;29.3;48.7
74427;BME280;62859;53.906;27.430;2023-08-20T18:46:03;1010.8;;;29.3;49
74427;BME280;62859;53.906;27.430;2023-08-20T18:50:27;1010.8;;;29.2;49.3
74427;BME280;62859;53.906;27.430;2023-08-20T18:55:27;1010.9;;;29.1;49.5
74427;BME280;62859;53.906;27.430;2023-08-20T19:01:03;1010.9;;;29.1;49.8
74427;BME280;62859;53.906;27.430;2023-08-20T19:05:55;1010.9;;;29;50.3
74427;BME280;62859;53.906;27.430;2023-08-20T19:10:41;1010.9;;;28.9;50.7
74427;BME280;62859;53.906;27.430;2023-08-20T19:15:45;1011;;;28.8;51.1
74427;BME280;62859;53.906;27.430;2023-08-20T19:20:48;1011;;;28.7;51.5
74427;BME280;62859;53.906;27.430;2023-08-20T19:25:44;1011;;;28.7;51.6
74427;BME280;62859;53.906;27.430;2023-08-20T19:30:42;1011;;;28.7;51.8
74427;BME280;62859;53.906;27.430;2023-08-20T19:36:05;1011;;;28.6;52.1
74427;BME280;62859;53.906;27.430;2023-08-20T19:40:47;1011;;;28.5;52.5
74427;BME280;62859;53.906;27.430;2023-08-20T19:45:41;1011.1;;;28.3;53
74427;BME280;62859;53.906;27.430;2023-08-20T19:50:41;1011.2;;;28.1;53.8
74427;BME280;62859;53.906;27.430;2023-08-20T19:55:37;1011.2;;;28.1;53.8
74427;BME280;62859;53.906;27.430;2023-08-20T20:00:28;1011.2;;;28.1;53.7
74427;BME280;62859;53.906;27.430;2023-08-20T20:05:43;1011.3;;;27.9;53.8
74427;BME280;62859;53.906;27.430;2023-08-20T20:10:51;1011.3;;;27.9;53.8
74427;BME280;62859;53.906;27.430;2023-08-20T20:15:49;1011.3;;;27.8;53.9
74427;BME280;62859;53.906;27.430;2023-08-20T20:20:33;1011.3;;;27.8;53.9
74427;BME280;62859;53.906;27.430;2023-08-20T20:25:39;1011.3;;;27.7;53.9
74427;BME280;62859;53.906;27.430;2023-08-20T20:30:31;1011.3;;;27.7;53.8
74427;BME280;62859;53.906;27.430;2023-08-20T20:35:29;1011.4;;;27.7;53.9
74427;BME280;62859;53.906;27.430;2023-08-20T20:41:06;1011.4;;;27.5;54
74427;BME280;62859;53.906;27.430;2023-08-20T20:45:42;1011.4;;;27.5;53.9
74427;BME280;62859;53.906;27.430;2023-08-20T20:50:40;1011.4;;;27.5;53.9
74427;BME280;62859;53.906;27.430;2023-08-20T20:56:05;1011.4;;;27.5;54
74427;BME280;62859;53.906;27.430;2023-08-20T21:00:54;1011.4;;;27.4;53.8
74427;BME280;62859;53.906;27.430;2023-08-20T21:05:27;1011.4;;;27.5;53.5
74427;BME280;62859;53.906;27.430;2023-08-20T21:10:51;1011.5;;;27.5;53.5
74427;BME280;62859;53.906;27.430;2023-08-20T21:16:04;1011.5;;;27.4;53.2
74427;BME280;62859;53.906;27.430;2023-08-20T21:21:03;1011.5;;;27.4;53.2
74427;BME280;62859;53.906;27.430;2023-08-20T21:26:03;1011.5;;;27.4;53.9
74427;BME280;62859;53.906;27.430;2023-08-20T21:31:01;1011.5;;;27.3;54.3
74427;BME280;62859;53.906;27.430;2023-08-20T21:35:57;1011.5;;;27.3;54.5
74427;BME280;62859;53.906;27.430;2023-08-20T21:40:27;1011.4;;;27.2;54.9
74427;BME280;62859;53.906;27.430;2023-08-20T21:45:29;1011.4;;;27.1;55
74427;BME280;62859;53.906;27.430;2023-08-20T21:51:03;1011.4;;;27.1;55
74427;BME280;62859;53.906;27.430;2023-08-20T21:55:57;1011.4;;;27.1;54.9
74427;BME280;62859;53.906;27.430;2023-08-20T22:00:51;1011.4;;;26.8;55.3
74427;BME280;62859;53.906;27.430;2023-08-20T22:06:05;1011.5;;;26.8;55.3
74427;BME280;62859;53.906;27.430;2023-08-20T22:10:31;1011.5;;;26.7;55.4
74427;BME280;62859;53.906;27.430;2023-08-20T22:15:31;1011.5;;;26.6;55.3
74427;BME280;62859;53.906;27.430;2023-08-20T22:20:44;1011.5;;;26.6;54.8
74427;BME280;62859;53.906;27.430;2023-08-20T22:26:04;1011.5;;;26.6;54.5
74427;BME280;62859;53.906;27.430;2023-08-20T22:30:47;1011.4;;;26.6;54.5
74427;BME280;62859;53.906;27.430;2023-08-20T22:35:53;1011.4;;;26.6;54.7
74427;BME280;62859;53.906;27.430;2023-08-20T22:40:32;1011.4;;;26.6;54.5
74427;BME280;62859;53.906;27.430;2023-08-20T22:46:06;1011.4;;;26.6;54.5
74427;BME280;62859;53.906;27.430;2023-08-20T22:51:04;1011.3;;;26.5;54.4
74427;BME280;62859;53.906;27.430;2023-08-20T22:55:32;1011.3;;;26.5;54.6
74427;BME280;62859;53.906;27.430;2023-08-20T23:00:38;1011.3;;;26.4;54.7
74427;BME280;62859;53.906;27.430;2023-08-20T23:05:34;1011.3;;;26.4;54.7
74427;BME280;62859;53.906;27.430;2023-08-20T23:11:04;1011.4;;;26.4;54.8
74427;BME280;62859;53.906;27.430;2023-08-20T23:15:32;1011.4;;;26.4;54.9
74427;BME280;62859;53.906;27.430;2023-08-20T23:20:44;1011.4;;;26.4;55.1
74427;BME280;62859;53.906;27.430;2023-08-20T23:26:04;1011.4;;;26.4;55.2
74427;BME280;62859;53.906;27.430;2023-08-20T23:30:56;1011.4;;;26.3;55.1
74427;BME280;62859;53.906;27.430;2023-08-20T23:35:58;1011.4;;;26.3;55.3
74427;BME280;62859;53.906;27.430;2023-08-20T23:40:38;1011.5;;;26.2;55.5
74427;BME280;62859;53.906;27.430;2023-08-20T23:45:50;1011.4;;;26.2;55.6
74427;BME280;62859;53.906;27.430;2023-08-20T23:50:28;1011.5;;;26.1;55.9
74427;BME280;62859;53.906;27.430;2023-08-20T23:55:46;1011.4;;;26.1;56.1
